Time;durP1;ratioP1;P1;durP2;ratioP2;P2;SDS_P1;SDS_P2;PMS_P1;PMS_P2;Temp;Humidity;BMP_temperature;BMP_pressure;BME280_temperature;BME280_humidity;BME280_pressure;Samples;Min_cycle;Max_cycle;Signal;HPM_P1;HPM_P2
2022/12/17 13:07:01;;;;;;;16.77;15.07;;;1.60;72.20;;;;;;5082878;28;20918;-69
2022/12/17 13:09:37;;;;;;;16.05;14.45;;;1.80;71.90;;;;;;5073646;28;20431;-70
2022/12/17 13:12:33;;;;;;;15.10;13.57;;;1.90;72.10;;;;;;5099558;22;20448;-69
2022/12/17 13:15:16;;;;;;;15.38;13.88;;;2.20;71.00;;;;;;5092781;28;20800;-69
2022/12/17 13:17:55;;;;;;;16.02;14.43;;;2.20;69.40;;;;;;5094225;28;20938;-68
2022/12/17 13:20:26;;;;;;;16.42;14.73;;;2.40;68.60;;;;;;5097162;28;20431;-68
2022/12/17 13:23:04;;;;;;;15.30;13.70;;;2.40;68.70;;;;;;5086796;28;20464;-68
2022/12/17 13:25:31;;;;;;;15.32;13.73;;;2.60;68.40;;;;;;5080406;28;20428;-69
2022/12/17 13:27:58;;;;;;;15.80;14.02;;;2.50;66.50;;;;;;5082665;28;20440;-67
2022/12/17 13:30:34;;;;;;;16.30;14.27;;;2.40;67.00;;;;;;5077606;28;20439;-66
2022/12/17 13:33:19;;;;;;;16.20;14.50;;;2.40;67.30;;;;;;5091672;28;20433;-67
2022/12/17 13:35:54;;;;;;;15.70;14.10;;;2.20;67.30;;;;;;5084698;28;20425;-67
2022/12/17 13:38:27;;;;;;;14.57;13.07;;;2.20;68.10;;;;;;5091029;28;20409;-68
2022/12/17 13:41:04;;;;;;;15.13;13.53;;;2.30;67.70;;;;;;5089476;28;20931;-67
2022/12/17 13:43:34;;;;;;;17.50;14.30;;;2.10;67.30;;;;;;5075610;28;20519;-67
2022/12/17 13:46:01;;;;;;;15.70;14.10;;;1.80;68.30;;;;;;5084266;28;20421;-67
2022/12/17 13:48:29;;;;;;;14.23;12.73;;;1.50;69.20;;;;;;5088209;28;20425;-67
2022/12/17 13:50:58;;;;;;;16.27;14.55;;;1.30;70.70;;;;;;5089446;28;20504;-67
2022/12/17 13:53:25;;;;;;;15.48;13.50;;;1.00;71.40;;;;;;5087810;28;20518;-67
2022/12/17 13:55:54;;;;;;;15.27;13.77;;;0.90;72.80;;;;;;5088048;28;20421;-67
2022/12/17 13:58:24;;;;;;;15.68;14.10;;;0.70;73.40;;;;;;5090778;28;20866;-68
2022/12/17 14:00:51;;;;;;;16.95;14.18;;;0.60;73.90;;;;;;5085505;28;20472;-67
2022/12/17 14:03:21;;;;;;;16.27;14.27;;;0.40;75.00;;;;;;5084131;28;20433;-67
2022/12/17 14:05:50;;;;;;;15.55;13.52;;;0.20;76.00;;;;;;5084821;28;20426;-67
2022/12/17 14:08:19;;;;;;;16.08;14.10;;;0.10;77.00;;;;;;5087419;28;20436;-67
2022/12/17 14:10:51;;;;;;;17.05;14.90;;;0.00;78.10;;;;;;5089515;28;20431;-67
2022/12/17 14:13:17;;;;;;;16.27;14.63;;;0.00;78.20;;;;;;5079482;28;20425;-67
2022/12/17 14:15:50;;;;;;;17.15;14.50;;;0.00;78.20;;;;;;5087023;28;20472;-66
2022/12/17 14:18:20;;;;;;;17.17;14.98;;;0.00;78.50;;;;;;5080968;28;20807;-68
2022/12/17 14:20:49;;;;;;;16.10;14.40;;;-0.10;78.40;;;;;;5087177;28;20478;-67
2022/12/17 14:23:25;;;;;;;16.48;13.88;;;-0.20;79.10;;;;;;5087257;28;20486;-69
2022/12/17 14:25:52;;;;;;;16.60;14.00;;;-0.20;78.90;;;;;;5088689;28;20430;-67
2022/12/17 14:28:22;;;;;;;19.15;15.70;;;-0.40;79.40;;;;;;5093686;28;20429;-67
2022/12/17 14:30:49;;;;;;;16.70;14.90;;;-0.40;80.80;;;;;;5084002;28;20866;-67
2022/12/17 14:33:28;;;;;;;16.25;14.10;;;-0.50;80.80;;;;;;5083851;28;20430;-69
2022/12/17 14:35:56;;;;;;;16.77;14.50;;;-0.50;81.30;;;;;;5087594;28;20433;-69
2022/12/17 14:38:25;;;;;;;17.00;15.20;;;-0.50;81.30;;;;;;5088932;28;20433;-69
2022/12/17 14:40:52;;;;;;;16.45;14.75;;;-0.60;81.80;;;;;;5086563;28;20438;-69
2022/12/17 14:43:25;;;;;;;17.52;15.05;;;-0.60;82.40;;;;;;5081756;28;20433;-70
2022/12/17 14:49:02;;;;;;;16.10;14.40;;;-0.60;82.20;;;;;;5088189;28;20413;-67
2022/12/17 14:51:32;;;;;;;17.70;15.80;;;-0.70;83.30;;;;;;5079473;28;20515;-70
2022/12/17 14:54:29;;;;;;;16.48;14.77;;;-0.80;84.20;;;;;;5086188;28;21084;-67
2022/12/17 14:56:58;;;;;;;17.15;14.18;;;-0.80;84.80;;;;;;5082303;28;20554;-70
2022/12/17 14:59:30;;;;;;;15.57;13.88;;;-0.70;84.30;;;;;;5083040;28;20414;-69
2022/12/17 15:01:59;;;;;;;15.63;13.90;;;-0.80;84.10;;;;;;5086662;28;20433;-70
2022/12/17 15:04:26;;;;;;;15.93;14.23;;;-0.80;84.10;;;;;;5087696;28;20448;-70
2022/12/17 15:06:54;;;;;;;16.38;14.57;;;-0.90;84.20;;;;;;5088864;28;20410;-70
2022/12/17 15:09:22;;;;;;;15.30;13.70;;;-1.00;85.10;;;;;;5088936;28;20446;-69
2022/12/17 15:11:49;;;;;;;16.27;14.57;;;-1.10;85.30;;;;;;5086605;28;20449;-69
2022/12/17 15:14:16;;;;;;;15.90;13.48;;;-1.20;85.80;;;;;;5088163;28;20909;-69
2022/12/17 15:16:43;;;;;;;15.25;13.75;;;-1.20;86.00;;;;;;5087223;28;20828;-70
2022/12/17 15:19:09;;;;;;;16.58;14.88;;;-1.30;86.10;;;;;;5088539;28;20421;-70
2022/12/17 15:21:36;;;;;;;17.25;15.45;;;-1.40;87.50;;;;;;5087334;28;20721;-70
2022/12/17 15:24:04;;;;;;;17.10;15.35;;;-1.50;87.90;;;;;;5085913;28;20421;-70
2022/12/17 15:26:32;;;;;;;16.80;15.00;;;-1.40;87.70;;;;;;5086170;28;20454;-69
2022/12/17 15:28:59;;;;;;;17.42;15.57;;;-1.40;89.00;;;;;;5086504;28;20511;-70
2022/12/17 15:31:25;;;;;;;16.73;14.93;;;-1.50;88.60;;;;;;5088855;28;20430;-70
2022/12/17 15:33:52;;;;;;;17.63;15.40;;;-1.60;89.30;;;;;;5086929;28;20425;-70
2022/12/17 15:36:19;;;;;;;18.75;16.00;;;-1.60;89.60;;;;;;5083360;28;20433;-70
2022/12/17 15:38:46;;;;;;;19.60;17.38;;;-1.60;90.00;;;;;;5087758;28;20429;-69
2022/12/17 15:43:58;;;;;;;17.83;15.90;;;-1.70;90.10;;;;;;5083969;28;20425;-68
2022/12/17 15:46:25;;;;;;;19.40;16.85;;;-1.70;90.30;;;;;;5084740;28;20445;-68
2022/12/17 15:48:51;;;;;;;16.50;14.90;;;-1.70;90.40;;;;;;5082517;28;20428;-68
2022/12/17 15:51:19;;;;;;;17.23;15.07;;;-1.80;90.60;;;;;;5088145;28;20773;-69
2022/12/17 15:53:47;;;;;;;18.00;16.05;;;-1.80;90.60;;;;;;5085438;28;20438;-68
2022/12/17 15:56:18;;;;;;;17.25;15.45;;;-1.80;90.80;;;;;;5088322;28;20457;-69
2022/12/17 15:58:45;;;;;;;17.08;14.32;;;-1.80;90.80;;;;;;5082085;28;20439;-69
2022/12/17 16:01:13;;;;;;;16.88;14.82;;;-1.80;90.50;;;;;;5078963;28;20435;-69
2022/12/17 16:03:40;;;;;;;17.08;15.18;;;-1.90;90.50;;;;;;5080420;28;20432;-69
2022/12/17 16:06:06;;;;;;;17.30;15.50;;;-1.90;90.80;;;;;;5079912;28;21958;-68
2022/12/17 16:08:33;;;;;;;17.90;16.00;;;-2.00;91.10;;;;;;5082462;28;20432;-68
2022/12/17 16:11:00;;;;;;;15.75;14.15;;;-2.00;91.40;;;;;;5086919;28;20406;-70
2022/12/17 16:13:27;;;;;;;17.50;15.38;;;-2.00;91.10;;;;;;5084112;28;20429;-67
2022/12/17 16:15:56;;;;;;;15.90;14.20;;;-2.00;91.00;;;;;;5082549;28;20422;-70
2022/12/17 16:18:24;;;;;;;16.70;13.83;;;-2.00;91.00;;;;;;5086539;28;20487;-69
2022/12/17 16:20:51;;;;;;;16.80;15.00;;;-2.10;90.90;;;;;;5082154;28;20430;-69
2022/12/17 16:23:19;;;;;;;17.60;15.68;;;-2.10;90.90;;;;;;5088780;28;20441;-70
2022/12/17 16:25:54;;;;;;;16.30;14.60;;;-2.10;91.20;;;;;;5087325;28;20745;-70
2022/12/17 16:28:21;;;;;;;17.35;15.55;;;-2.20;91.40;;;;;;5085122;28;20442;-69
2022/12/17 16:30:58;;;;;;;15.82;14.23;;;-2.20;91.60;;;;;;5086068;28;20468;-69
2022/12/17 16:33:26;;;;;;;17.00;14.93;;;-2.20;91.70;;;;;;5088984;28;21018;-69
2022/12/17 16:35:52;;;;;;;16.52;14.82;;;-2.20;91.80;;;;;;5083836;28;20434;-68
2022/12/17 16:38:20;;;;;;;17.50;13.90;;;-2.30;91.80;;;;;;5081117;28;20774;-70
2022/12/17 16:40:47;;;;;;;15.32;13.60;;;-2.30;91.60;;;;;;5085393;28;20430;-68
2022/12/17 16:43:14;;;;;;;15.90;14.18;;;-2.30;91.40;;;;;;5086440;28;20428;-69
2022/12/17 16:45:47;;;;;;;15.37;13.77;;;-2.40;91.10;;;;;;5084024;28;20429;-68
2022/12/17 16:48:14;;;;;;;15.65;13.95;;;-2.40;91.00;;;;;;5085773;28;20413;-68
2022/12/17 16:50:43;;;;;;;16.02;14.43;;;-2.40;91.10;;;;;;5088017;28;20422;-69
2022/12/17 16:53:09;;;;;;;16.17;14.48;;;-2.50;91.40;;;;;;5088234;28;20417;-69
2022/12/17 16:55:41;;;;;;;16.08;14.48;;;-2.50;91.60;;;;;;5101561;28;20538;-68
2022/12/17 16:58:08;;;;;;;16.13;14.52;;;-2.50;91.70;;;;;;5088202;28;20422;-68
2022/12/17 17:00:35;;;;;;;16.10;14.50;;;-2.50;91.60;;;;;;5087040;28;20433;-68
2022/12/17 17:03:03;;;;;;;16.88;15.18;;;-2.50;91.70;;;;;;5081745;28;20956;-68
2022/12/17 17:05:31;;;;;;;17.25;14.73;;;-2.60;91.70;;;;;;5088927;28;20413;-70
2022/12/17 17:08:00;;;;;;;16.30;14.57;;;-2.60;91.60;;;;;;5084450;28;20426;-69
2022/12/17 17:10:27;;;;;;;16.67;14.85;;;-2.60;91.50;;;;;;5090124;28;20495;-70
2022/12/17 17:12:54;;;;;;;16.45;14.75;;;-2.60;91.40;;;;;;5090515;28;20428;-68
2022/12/17 17:15:22;;;;;;;17.08;15.25;;;-2.60;91.50;;;;;;5085388;28;20423;-69
2022/12/17 17:17:49;;;;;;;15.65;14.00;;;-2.70;91.60;;;;;;5091276;28;20425;-69
2022/12/17 17:20:17;;;;;;;17.50;14.85;;;-2.70;91.70;;;;;;5091577;28;20421;-69
2022/12/17 17:22:44;;;;;;;16.95;15.15;;;-2.80;91.80;;;;;;5093791;28;20438;-69
2022/12/17 17:25:12;;;;;;;16.70;15.05;;;-2.80;92.10;;;;;;5090922;28;20410;-70
2022/12/17 17:27:38;;;;;;;17.48;15.68;;;-2.80;92.40;;;;;;5089593;28;20432;-68
2022/12/17 17:30:06;;;;;;;17.73;15.82;;;-2.90;92.60;;;;;;5090562;28;20426;-68
2022/12/17 17:32:33;;;;;;;18.17;15.40;;;-2.90;92.80;;;;;;5091249;28;20421;-68
2022/12/17 17:35:00;;;;;;;17.75;15.80;;;-2.90;92.70;;;;;;5105183;28;20890;-68
2022/12/17 17:37:27;;;;;;;17.00;15.20;;;-2.90;92.70;;;;;;5096182;28;20943;-69
2022/12/17 17:39:53;;;;;;;17.40;15.60;;;-2.90;92.60;;;;;;5097762;28;20572;-67
2022/12/17 17:42:21;;;;;;;16.42;14.38;;;-2.90;92.70;;;;;;5079427;28;20426;-68
2022/12/17 17:44:48;;;;;;;17.13;15.27;;;-2.90;92.80;;;;;;5100781;28;20434;-67
2022/12/17 17:47:15;;;;;;;18.08;15.70;;;-2.90;92.70;;;;;;5085921;28;20410;-67
2022/12/17 17:49:42;;;;;;;16.73;14.93;;;-2.90;92.60;;;;;;5090563;28;20880;-70
2022/12/17 17:52:08;;;;;;;17.65;15.80;;;-2.90;92.70;;;;;;5103753;28;20891;-69
2022/12/17 17:54:35;;;;;;;17.50;15.60;;;-2.90;92.80;;;;;;5090473;28;20420;-70
2022/12/17 17:57:02;;;;;;;17.23;15.43;;;-2.90;92.70;;;;;;5086955;28;20421;-69
2022/12/17 17:59:31;;;;;;;17.80;15.82;;;-3.00;92.90;;;;;;5080916;28;20506;-69
2022/12/17 18:01:57;;;;;;;18.52;16.40;;;-3.00;93.00;;;;;;5085988;28;20532;-69
2022/12/17 18:04:24;;;;;;;17.90;16.00;;;-3.00;93.10;;;;;;5094263;28;20410;-68
2022/12/17 18:06:52;;;;;;;16.83;15.02;;;-3.00;93.00;;;;;;5105379;28;20410;-69
2022/12/17 18:09:18;;;;;;;17.65;15.75;;;-3.00;92.90;;;;;;5091528;28;20493;-69
2022/12/17 18:11:45;;;;;;;17.03;14.60;;;-3.00;92.90;;;;;;5096457;28;21195;-69
2022/12/17 18:14:12;;;;;;;15.98;14.27;;;-3.10;93.00;;;;;;5094899;28;20425;-69
2022/12/17 18:16:41;;;;;;;17.05;15.25;;;-3.10;92.90;;;;;;5083362;28;20448;-70
2022/12/17 18:19:10;;;;;;;16.00;14.30;;;-3.10;92.90;;;;;;5094628;28;20899;-69
2022/12/17 18:21:38;;;;;;;16.17;14.30;;;-3.10;93.00;;;;;;5102449;28;20414;-69
2022/12/17 18:24:06;;;;;;;17.00;15.30;;;-3.10;93.10;;;;;;5089746;28;20876;-70
2022/12/17 18:26:36;;;;;;;17.17;15.43;;;-3.10;93.20;;;;;;5087050;28;20441;-70
2022/12/17 18:29:08;;;;;;;17.70;15.90;;;-3.20;93.30;;;;;;5089640;28;20496;-69
2022/12/17 18:31:35;;;;;;;17.33;15.52;;;-3.20;93.30;;;;;;5088877;28;20979;-69
2022/12/17 18:34:04;;;;;;;17.30;15.40;;;-3.20;93.50;;;;;;5089446;28;20418;-69
2022/12/17 18:36:33;;;;;;;17.30;15.50;;;-3.20;93.60;;;;;;5093915;28;20412;-68
2022/12/17 18:39:02;;;;;;;17.00;15.05;;;-3.20;93.60;;;;;;5092313;28;20809;-67
2022/12/17 18:44:14;;;;;;;17.77;15.98;;;-3.20;93.30;;;;;;5089550;28;20471;-67
2022/12/17 18:46:41;;;;;;;18.73;16.83;;;-3.20;93.40;;;;;;5091280;28;20425;-67
2022/12/17 18:49:11;;;;;;;17.65;15.45;;;-3.20;93.30;;;;;;5092533;28;20791;-68
2022/12/17 18:51:40;;;;;;;17.58;15.77;;;-3.20;93.30;;;;;;5092115;28;20437;-67
2022/12/17 18:54:09;;;;;;;17.73;15.80;;;-3.20;93.20;;;;;;5099608;28;20412;-68
2022/12/17 18:56:36;;;;;;;17.77;15.88;;;-3.20;93.30;;;;;;5095614;28;20714;-67
2022/12/17 18:59:04;;;;;;;17.40;15.60;;;-3.30;93.20;;;;;;5088457;28;20502;-69
2022/12/17 19:01:34;;;;;;;18.00;16.10;;;-3.30;93.30;;;;;;5089482;28;20448;-68
2022/12/17 19:04:02;;;;;;;18.15;15.27;;;-3.30;93.30;;;;;;5089391;28;20414;-69
2022/12/17 19:06:32;;;;;;;17.70;15.63;;;-3.30;93.30;;;;;;5089490;28;20410;-70
2022/12/17 19:08:59;;;;;;;17.93;16.03;;;-3.30;93.40;;;;;;5089786;28;20564;-69
2022/12/17 19:11:26;;;;;;;17.80;15.90;;;-3.30;93.30;;;;;;5103288;28;20497;-69
2022/12/17 19:13:53;;;;;;;18.65;16.25;;;-3.30;93.40;;;;;;5086047;28;20441;-69
2022/12/17 19:16:22;;;;;;;17.40;15.50;;;-3.30;93.40;;;;;;5087318;28;20410;-67
2022/12/17 19:18:52;;;;;;;19.67;16.42;;;-3.40;93.60;;;;;;5089676;28;20433;-68
2022/12/17 19:21:19;;;;;;;17.50;15.60;;;-3.30;93.60;;;;;;5094818;28;20412;-67
2022/12/17 19:23:47;;;;;;;19.70;17.33;;;-3.30;93.40;;;;;;5096611;28;20425;-68
2022/12/17 19:26:16;;;;;;;17.33;15.63;;;-3.40;93.40;;;;;;5089407;28;20417;-68
2022/12/17 19:28:46;;;;;;;20.23;17.70;;;-3.40;93.70;;;;;;5093415;28;20661;-68
2022/12/17 19:31:13;;;;;;;18.55;16.65;;;-3.40;94.00;;;;;;5080510;28;20528;-67
2022/12/17 19:33:40;;;;;;;19.20;16.98;;;-3.50;94.10;;;;;;5088721;28;20406;-68
2022/12/17 19:36:10;;;;;;;17.85;15.73;;;-3.50;94.30;;;;;;5096566;28;20408;-68
2022/12/17 19:38:37;;;;;;;18.20;16.30;;;-3.50;94.40;;;;;;5094514;28;20483;-68
2022/12/17 19:41:08;;;;;;;17.80;15.90;;;-3.50;94.40;;;;;;5088808;28;20421;-68
2022/12/17 19:43:36;;;;;;;17.63;15.73;;;-3.50;94.50;;;;;;5081343;28;20439;-68
2022/12/17 19:46:04;;;;;;;18.05;16.15;;;-3.50;94.40;;;;;;5088763;28;20951;-70
2022/12/17 19:48:32;;;;;;;17.90;15.82;;;-3.50;94.30;;;;;;5088650;28;20454;-69
2022/12/17 19:50:59;;;;;;;17.75;15.85;;;-3.50;94.20;;;;;;5088655;28;20410;-69
2022/12/17 19:53:26;;;;;;;18.08;16.17;;;-3.40;94.10;;;;;;5101884;28;20416;-69
2022/12/17 19:55:54;;;;;;;18.48;16.08;;;-3.40;93.90;;;;;;5088149;28;20425;-69
2022/12/17 19:58:22;;;;;;;17.23;15.43;;;-3.40;93.70;;;;;;5084687;28;20788;-70
2022/12/17 20:00:50;;;;;;;21.08;18.90;;;-3.50;93.60;;;;;;5086354;28;20517;-69
2022/12/17 20:03:17;;;;;;;19.33;16.77;;;-3.50;93.60;;;;;;5093002;28;20960;-69
2022/12/17 20:05:44;;;;;;;18.27;16.38;;;-3.40;93.60;;;;;;5087570;28;20438;-69
2022/12/17 20:08:11;;;;;;;17.40;15.40;;;-3.50;93.60;;;;;;5086243;28;20430;-69
2022/12/17 20:10:40;;;;;;;17.00;15.20;;;-3.50;93.60;;;;;;5088485;28;20410;-69
2022/12/17 20:13:06;;;;;;;16.55;14.85;;;-3.50;93.40;;;;;;5088525;28;20438;-69
2022/12/17 20:15:34;;;;;;;16.30;14.60;;;-3.50;93.20;;;;;;5085551;28;20422;-69
2022/12/17 20:18:01;;;;;;;16.10;14.38;;;-3.50;93.20;;;;;;5089830;28;20440;-69
2022/12/17 20:20:28;;;;;;;17.90;15.70;;;-3.50;93.20;;;;;;5086389;28;20417;-69
2022/12/17 20:22:54;;;;;;;16.50;14.80;;;-3.50;93.00;;;;;;5087820;28;21171;-69
2022/12/17 20:25:21;;;;;;;16.27;14.68;;;-3.50;93.00;;;;;;5088466;28;20414;-69
2022/12/17 20:27:48;;;;;;;16.27;14.10;;;-3.50;92.90;;;;;;5085835;28;20542;-69
2022/12/17 20:30:15;;;;;;;16.08;14.38;;;-3.40;92.80;;;;;;5088013;28;20417;-69
2022/12/17 20:32:43;;;;;;;15.65;13.95;;;-3.50;92.80;;;;;;5109651;22;20808;-66
2022/12/17 20:35:10;;;;;;;14.20;12.70;;;-3.50;93.00;;;;;;5088058;28;20437;-66
2022/12/17 20:37:37;;;;;;;15.70;13.88;;;-3.50;92.90;;;;;;5088095;28;20444;-67
2022/12/17 20:40:04;;;;;;;15.38;13.52;;;-3.40;92.80;;;;;;5074578;28;20454;-67
2022/12/17 20:42:31;;;;;;;16.20;14.40;;;-3.40;92.80;;;;;;5084268;28;20433;-66
2022/12/17 20:44:57;;;;;;;15.63;14.02;;;-3.40;92.80;;;;;;5078434;28;20413;-66
2022/12/17 20:47:24;;;;;;;16.38;14.68;;;-3.40;92.70;;;;;;5083424;28;20417;-66
2022/12/17 20:49:52;;;;;;;14.73;13.13;;;-3.40;92.70;;;;;;5085271;28;20425;-66
2022/12/17 20:52:19;;;;;;;15.43;13.82;;;-3.40;92.70;;;;;;5080990;28;20416;-66
2022/12/17 20:54:46;;;;;;;15.77;14.07;;;-3.40;92.50;;;;;;5068215;28;20789;-66
2022/12/17 20:57:13;;;;;;;15.00;13.40;;;-3.40;92.30;;;;;;5080834;28;20431;-65
2022/12/17 20:59:39;;;;;;;15.90;13.82;;;-3.40;92.20;;;;;;5073375;28;20424;-66
2022/12/17 21:02:06;;;;;;;16.20;13.80;;;-3.50;92.30;;;;;;5082797;28;21202;-66
2022/12/17 21:04:33;;;;;;;16.45;13.57;;;-3.50;92.30;;;;;;5072711;28;20832;-66
2022/12/17 21:07:01;;;;;;;15.98;13.63;;;-3.50;92.40;;;;;;5073513;28;20417;-67
2022/12/17 21:09:28;;;;;;;16.05;13.63;;;-3.50;92.50;;;;;;5087110;28;20800;-66
2022/12/17 21:11:55;;;;;;;15.65;13.75;;;-3.50;92.50;;;;;;5084817;28;20452;-66
2022/12/17 21:14:21;;;;;;;16.30;14.35;;;-3.60;92.50;;;;;;5079878;28;21251;-66
2022/12/17 21:16:48;;;;;;;15.15;13.65;;;-3.60;92.60;;;;;;5087744;28;20437;-66
2022/12/17 21:19:17;;;;;;;15.53;13.87;;;-3.60;92.50;;;;;;5073570;28;20505;-66
2022/12/17 21:21:44;;;;;;;16.45;13.95;;;-3.60;92.50;;;;;;5078456;28;20449;-66
2022/12/17 21:24:12;;;;;;;15.38;12.75;;;-3.60;92.60;;;;;;5066783;28;20443;-66
2022/12/17 21:26:41;;;;;;;15.60;14.00;;;-3.70;92.70;;;;;;5071429;28;20419;-66
2022/12/17 21:29:08;;;;;;;13.98;12.48;;;-3.70;92.70;;;;;;5069799;28;20893;-66
2022/12/17 21:31:37;;;;;;;15.13;13.52;;;-3.60;92.60;;;;;;5075041;28;20462;-65
2022/12/17 21:34:06;;;;;;;15.07;13.48;;;-3.60;92.50;;;;;;5076248;28;20431;-66
2022/12/17 21:36:34;;;;;;;14.23;12.73;;;-3.70;92.40;;;;;;5078179;28;20425;-66
2022/12/17 21:39:01;;;;;;;14.55;13.00;;;-3.70;92.60;;;;;;5072037;28;20819;-66
2022/12/17 21:41:32;;;;;;;14.20;12.70;;;-3.70;92.70;;;;;;5074968;28;20912;-66
2022/12/17 21:44:01;;;;;;;14.32;12.93;;;-3.70;92.80;;;;;;5072029;28;20418;-66
2022/12/17 21:46:28;;;;;;;13.48;12.05;;;-3.70;92.70;;;;;;5074332;28;20441;-67
2022/12/17 21:48:56;;;;;;;14.30;12.13;;;-3.70;92.40;;;;;;5067183;28;20497;-66
2022/12/17 21:51:24;;;;;;;13.50;12.10;;;-3.70;92.10;;;;;;5076569;28;20431;-65
2022/12/17 21:53:53;;;;;;;14.07;12.00;;;-3.70;92.00;;;;;;5081908;28;20438;-66
2022/12/17 21:56:20;;;;;;;15.15;12.40;;;-3.70;92.00;;;;;;5071268;28;20412;-65
2022/12/17 21:58:49;;;;;;;14.68;12.05;;;-3.70;92.00;;;;;;5078822;28;20440;-66
2022/12/17 22:01:18;;;;;;;14.37;12.33;;;-3.70;91.70;;;;;;5079894;28;20426;-67
2022/12/17 22:03:45;;;;;;;13.00;11.43;;;-3.70;91.70;;;;;;5078836;28;20431;-68
2022/12/17 22:06:15;;;;;;;13.18;11.68;;;-3.70;91.60;;;;;;5079730;28;21113;-68
2022/12/17 22:08:43;;;;;;;13.52;11.95;;;-3.70;91.30;;;;;;5080358;28;20417;-68
2022/12/17 22:11:11;;;;;;;13.48;11.55;;;-3.80;91.30;;;;;;5076109;28;20835;-68
2022/12/17 22:16:24;;;;;;;14.35;12.10;;;-3.80;91.30;;;;;;5089963;28;20494;-66
2022/12/17 22:18:52;;;;;;;13.68;12.27;;;-3.80;91.40;;;;;;5084613;28;20425;-67
2022/12/17 22:21:18;;;;;;;13.75;12.35;;;-3.80;91.50;;;;;;5088311;28;20421;-68
2022/12/17 22:23:47;;;;;;;13.40;12.10;;;-3.80;91.50;;;;;;5081442;28;20421;-66
2022/12/17 22:26:15;;;;;;;14.20;12.70;;;-3.80;91.60;;;;;;5075341;28;20489;-66
2022/12/17 22:28:42;;;;;;;14.05;12.40;;;-3.90;91.80;;;;;;5085910;28;20467;-66
2022/12/17 22:33:57;;;;;;;12.73;11.43;;;-3.90;92.30;;;;;;5077071;28;20430;-66
2022/12/17 22:36:24;;;;;;;13.32;11.68;;;-3.90;91.90;;;;;;5084539;28;20494;-66
2022/12/17 22:38:51;;;;;;;13.40;12.00;;;-3.90;92.00;;;;;;5069829;28;20434;-66
2022/12/17 22:44:00;;;;;;;13.13;11.73;;;-3.80;91.80;;;;;;5087068;28;20969;-66
2022/12/17 22:46:27;;;;;;;13.20;11.80;;;-3.80;91.60;;;;;;5081003;28;20426;-67
2022/12/17 22:48:55;;;;;;;12.70;11.30;;;-3.80;91.60;;;;;;5077982;28;20414;-66
2022/12/17 22:51:23;;;;;;;13.05;11.30;;;-3.90;91.60;;;;;;5080067;28;20477;-66
2022/12/17 22:53:50;;;;;;;14.00;11.80;;;-3.80;91.60;;;;;;5082327;28;20426;-66
2022/12/17 22:56:17;;;;;;;13.50;11.60;;;-3.80;91.50;;;;;;5076106;28;20435;-66
2022/12/17 22:58:44;;;;;;;13.00;11.30;;;-3.80;91.30;;;;;;5069436;28;20929;-67
2022/12/17 23:01:11;;;;;;;12.13;10.40;;;-3.80;91.40;;;;;;5081782;28;20430;-66
2022/12/17 23:03:38;;;;;;;12.20;11.00;;;-3.80;91.40;;;;;;5081496;28;20431;-66
2022/12/17 23:06:10;;;;;;;13.18;11.50;;;-3.80;91.50;;;;;;5069651;28;20419;-67
2022/12/17 23:08:38;;;;;;;12.40;11.10;;;-3.80;91.60;;;;;;5080926;28;20445;-67
2022/12/17 23:11:07;;;;;;;13.18;11.77;;;-3.80;91.60;;;;;;5077948;28;20448;-67
2022/12/17 23:13:33;;;;;;;13.20;10.90;;;-3.80;91.60;;;;;;5080586;28;20463;-66
2022/12/17 23:16:00;;;;;;;14.75;11.10;;;-3.80;91.50;;;;;;5087553;28;20430;-67
2022/12/17 23:18:27;;;;;;;13.17;10.63;;;-3.80;91.50;;;;;;5078425;28;20526;-67
2022/12/17 23:20:54;;;;;;;12.75;10.82;;;-3.80;91.50;;;;;;5078225;28;20453;-67
2022/12/17 23:23:20;;;;;;;11.90;10.60;;;-3.80;91.50;;;;;;5070325;28;20438;-67
2022/12/17 23:25:48;;;;;;;12.50;11.20;;;-3.80;91.60;;;;;;5082687;28;20425;-67
2022/12/17 23:28:15;;;;;;;13.35;10.82;;;-3.90;91.60;;;;;;5075358;28;20409;-67
2022/12/17 23:30:42;;;;;;;12.43;11.13;;;-3.90;91.60;;;;;;5087835;28;20429;-66
2022/12/17 23:33:08;;;;;;;12.85;11.45;;;-3.90;91.70;;;;;;5076547;28;20421;-67
2022/12/17 23:35:35;;;;;;;12.50;11.15;;;-3.90;91.60;;;;;;5088873;28;20434;-67
2022/12/17 23:38:02;;;;;;;11.60;10.40;;;-3.90;91.50;;;;;;5086716;28;20499;-66
2022/12/17 23:40:29;;;;;;;12.85;10.40;;;-3.90;91.60;;;;;;5083835;28;20434;-68
2022/12/17 23:42:59;;;;;;;12.10;10.52;;;-4.00;91.60;;;;;;5079801;28;20412;-66
2022/12/17 23:45:26;;;;;;;11.57;10.38;;;-4.00;91.60;;;;;;5069816;28;20415;-66
2022/12/17 23:47:52;;;;;;;12.55;10.57;;;-3.90;91.60;;;;;;5073386;28;20419;-66
2022/12/17 23:50:19;;;;;;;11.85;10.65;;;-4.00;91.60;;;;;;5079891;28;20488;-66
2022/12/17 23:52:46;;;;;;;13.00;11.02;;;-4.00;91.70;;;;;;5084409;28;20428;-66
2022/12/17 23:55:12;;;;;;;12.43;11.13;;;-4.00;91.60;;;;;;5078785;28;20432;-66
2022/12/17 23:57:39;;;;;;;13.15;10.40;;;-4.00;91.80;;;;;;5071042;28;20407;-66
